Time;durP1;ratioP1;P1;durP2;ratioP2;P2;SDS_P1;SDS_P2;PMS_P1;PMS_P2;Temp;Humidity;BMP_temperature;BMP_pressure;BME280_temperature;BME280_humidity;BME280_pressure;Samples;Min_cycle;Max_cycle;Signal;HPM_P1;HPM_P2
2024/01/05 00:01:23;;;;;;;5.23;2.10;;;3.30;99.90;;;;;;4989487;28;20092;-80
2024/01/05 00:03:49;;;;;;;5.93;1.93;;;3.20;99.90;;;;;;4969258;28;20053;-80
2024/01/05 00:06:15;;;;;;;4.83;2.13;;;3.20;99.90;;;;;;4988381;28;20033;-81
2024/01/05 00:08:40;;;;;;;10.70;2.50;;;3.20;99.90;;;;;;4988586;28;20062;-80
2024/01/05 00:11:06;;;;;;;8.07;2.13;;;3.10;99.90;;;;;;4988134;28;20023;-80
2024/01/05 00:13:31;;;;;;;3.67;1.70;;;3.10;99.90;;;;;;4988981;28;20038;-79
2024/01/05 00:15:57;;;;;;;8.67;2.17;;;3.10;99.90;;;;;;4987582;28;20030;-80
2024/01/05 00:18:22;;;;;;;4.60;1.87;;;3.10;99.90;;;;;;4987590;28;20042;-80
2024/01/05 00:20:48;;;;;;;5.70;1.80;;;3.10;99.90;;;;;;4991744;28;20037;-80
2024/01/05 00:23:13;;;;;;;5.73;1.90;;;3.00;99.90;;;;;;4994673;28;20034;-80
2024/01/05 00:25:39;;;;;;;8.23;2.70;;;3.00;99.90;;;;;;4989264;28;20030;-80
2024/01/05 00:28:04;;;;;;;4.47;1.80;;;3.00;99.90;;;;;;4991866;28;20084;-80
2024/01/05 00:30:30;;;;;;;10.37;2.10;;;3.00;99.90;;;;;;4994754;28;20101;-80
2024/01/05 00:32:55;;;;;;;7.70;1.97;;;3.00;99.90;;;;;;4991639;28;20041;-80
2024/01/05 00:35:21;;;;;;;6.60;1.90;;;3.00;99.90;;;;;;4991449;28;20128;-80
2024/01/05 00:37:47;;;;;;;6.50;1.90;;;3.00;99.90;;;;;;4990594;28;20022;-80
2024/01/05 00:40:12;;;;;;;7.53;2.33;;;3.00;99.90;;;;;;4988975;28;20095;-80
2024/01/05 00:42:38;;;;;;;4.23;1.90;;;3.00;99.90;;;;;;4973514;28;20530;-80
2024/01/05 00:45:04;;;;;;;5.30;2.03;;;3.00;99.90;;;;;;4990604;28;20042;-80
2024/01/05 00:47:30;;;;;;;4.60;2.00;;;3.00;99.90;;;;;;4990429;28;20602;-80
2024/01/05 00:49:55;;;;;;;4.80;1.90;;;3.00;99.90;;;;;;4988896;28;20054;-80
2024/01/05 00:52:21;;;;;;;4.77;1.97;;;2.90;99.90;;;;;;4989952;28;20038;-80
2024/01/05 00:54:48;;;;;;;5.93;2.00;;;2.90;99.90;;;;;;4989811;28;20097;-80
2024/01/05 00:57:13;;;;;;;7.43;2.53;;;2.90;99.90;;;;;;4988899;28;20025;-80
2024/01/05 00:59:39;;;;;;;4.37;2.13;;;2.90;99.90;;;;;;4989712;28;20771;-80
2024/01/05 01:02:04;;;;;;;5.80;2.10;;;2.90;99.90;;;;;;4989844;28;20389;-80
2024/01/05 01:04:30;;;;;;;4.97;2.50;;;2.80;99.90;;;;;;4991381;28;20026;-81
2024/01/05 01:06:55;;;;;;;5.70;2.20;;;2.80;99.90;;;;;;4990326;28;20034;-80
2024/01/05 01:09:21;;;;;;;5.90;1.80;;;2.70;99.90;;;;;;4992071;28;20468;-80
2024/01/05 01:11:50;;;;;;;7.03;2.20;;;2.70;99.90;;;;;;4990545;28;20329;-80
2024/01/05 01:14:15;;;;;;;5.43;1.80;;;2.60;99.90;;;;;;4991596;28;20161;-80
2024/01/05 01:16:41;;;;;;;4.90;1.80;;;2.60;99.90;;;;;;4990500;28;20026;-80
2024/01/05 01:19:06;;;;;;;5.90;2.10;;;2.60;99.90;;;;;;4986155;28;20145;-80
2024/01/05 01:21:32;;;;;;;5.70;2.10;;;2.50;99.90;;;;;;4972120;28;20740;-80
2024/01/05 01:23:57;;;;;;;3.97;1.67;;;2.50;99.90;;;;;;4990932;28;20032;-80
2024/01/05 01:26:23;;;;;;;5.37;1.90;;;2.50;99.90;;;;;;4988505;28;20019;-80
2024/01/05 01:28:49;;;;;;;10.80;2.93;;;2.40;99.90;;;;;;4989560;28;20038;-81
2024/01/05 01:31:15;;;;;;;4.63;1.90;;;2.40;99.90;;;;;;4991203;28;20053;-81
2024/01/05 01:33:41;;;;;;;7.00;2.57;;;2.40;99.90;;;;;;4989396;28;20190;-80
2024/01/05 01:36:06;;;;;;;5.33;1.80;;;2.40;99.90;;;;;;4988510;28;20053;-80
2024/01/05 01:38:32;;;;;;;5.90;2.10;;;2.30;99.90;;;;;;4990629;28;20025;-80
2024/01/05 01:40:57;;;;;;;3.80;1.87;;;2.30;99.90;;;;;;4989384;28;20030;-81
2024/01/05 01:43:25;;;;;;;7.23;1.90;;;2.30;99.90;;;;;;4988526;28;20029;-80
2024/01/05 01:45:52;;;;;;;3.37;1.80;;;2.20;99.90;;;;;;4988276;28;20130;-80
2024/01/05 01:48:19;;;;;;;7.20;1.80;;;2.20;99.90;;;;;;4988198;28;20042;-80
2024/01/05 01:50:46;;;;;;;8.33;2.83;;;2.20;99.90;;;;;;4989926;28;20488;-80
2024/01/05 01:53:13;;;;;;;5.77;1.73;;;2.20;99.90;;;;;;4989153;28;20088;-80
2024/01/05 01:55:41;;;;;;;3.30;1.70;;;2.20;99.90;;;;;;4988662;28;20050;-80
2024/01/05 01:58:07;;;;;;;5.83;1.73;;;2.20;99.90;;;;;;4989787;28;20596;-80
2024/01/05 02:00:33;;;;;;;8.33;1.67;;;2.20;99.90;;;;;;4987761;28;20030;-80
2024/01/05 02:03:01;;;;;;;7.93;2.23;;;2.20;99.90;;;;;;4989409;28;20033;-80
2024/01/05 02:05:28;;;;;;;3.37;1.60;;;2.10;99.90;;;;;;4989246;28;20046;-80
2024/01/05 02:07:54;;;;;;;7.00;1.90;;;2.10;99.90;;;;;;4990027;28;20041;-80
2024/01/05 02:10:19;;;;;;;4.47;1.87;;;2.10;99.90;;;;;;4990509;28;20026;-80
2024/01/05 02:12:45;;;;;;;6.00;2.33;;;2.10;99.90;;;;;;4989503;28;20030;-80
2024/01/05 02:15:10;;;;;;;3.27;1.70;;;2.10;99.90;;;;;;4990608;28;20034;-80
2024/01/05 02:17:36;;;;;;;6.50;1.67;;;2.10;99.90;;;;;;4990978;28;20092;-80
2024/01/05 02:20:02;;;;;;;3.17;1.40;;;2.10;99.90;;;;;;4989711;28;20041;-81
2024/01/05 02:22:29;;;;;;;4.67;1.70;;;2.00;99.90;;;;;;4970440;28;20030;-80
2024/01/05 02:24:56;;;;;;;4.57;1.63;;;2.00;99.90;;;;;;4988985;28;20022;-80
2024/01/05 02:27:22;;;;;;;4.40;2.03;;;2.00;99.90;;;;;;4988138;28;20520;-80
2024/01/05 02:29:47;;;;;;;5.67;1.73;;;2.00;99.90;;;;;;4988062;28;20031;-81
2024/01/05 02:32:14;;;;;;;6.07;1.87;;;2.00;99.90;;;;;;4988184;28;20551;-81
2024/01/05 02:34:39;;;;;;;4.87;2.33;;;2.00;99.90;;;;;;4988233;28;20034;-80
2024/01/05 02:37:05;;;;;;;4.70;1.93;;;2.00;99.90;;;;;;4989006;28;20032;-81
2024/01/05 02:39:30;;;;;;;5.67;2.40;;;2.00;99.90;;;;;;4989678;28;20135;-81
2024/01/05 02:41:56;;;;;;;3.73;1.70;;;2.00;99.90;;;;;;4991559;28;20097;-80
2024/01/05 02:44:21;;;;;;;7.33;2.40;;;2.00;99.90;;;;;;4993307;28;20118;-80
2024/01/05 02:46:47;;;;;;;6.40;2.43;;;2.00;99.90;;;;;;4992000;28;20097;-80
2024/01/05 02:49:12;;;;;;;7.77;2.13;;;1.90;99.90;;;;;;4993193;28;20022;-81
2024/01/05 02:51:39;;;;;;;3.57;1.70;;;1.90;99.90;;;;;;4992885;28;20026;-80
2024/01/05 02:54:05;;;;;;;5.90;2.30;;;1.90;99.90;;;;;;4986720;28;20029;-80
2024/01/05 02:56:33;;;;;;;3.97;1.83;;;1.90;99.90;;;;;;4989573;28;20030;-80
2024/01/05 02:58:59;;;;;;;5.63;1.83;;;1.90;99.90;;;;;;4986082;28;20030;-79
2024/01/05 03:01:25;;;;;;;6.43;2.10;;;1.80;99.90;;;;;;4987610;28;20030;-80
2024/01/05 03:03:51;;;;;;;5.07;2.00;;;1.80;99.90;;;;;;4987137;28;20054;-80
2024/01/05 03:06:17;;;;;;;4.27;1.73;;;1.80;99.90;;;;;;4989112;28;20038;-80
2024/01/05 03:08:43;;;;;;;3.73;1.77;;;1.80;99.90;;;;;;4987488;28;20026;-80
2024/01/05 03:11:09;;;;;;;7.17;1.87;;;1.80;99.90;;;;;;4985074;28;20222;-80
2024/01/05 03:13:35;;;;;;;6.03;1.80;;;1.80;99.90;;;;;;4990432;28;20522;-81
2024/01/05 03:16:01;;;;;;;3.17;1.37;;;1.70;99.90;;;;;;4988916;28;20048;-80
2024/01/05 03:18:26;;;;;;;5.27;1.93;;;1.70;99.90;;;;;;4987422;28;20393;-80
2024/01/05 03:20:52;;;;;;;3.50;1.50;;;1.70;99.90;;;;;;4988690;28;20409;-80
2024/01/05 03:23:17;;;;;;;3.23;1.87;;;1.60;99.90;;;;;;4989490;28;20274;-80
2024/01/05 03:25:44;;;;;;;4.63;1.40;;;1.60;99.90;;;;;;4989323;28;20018;-80
2024/01/05 03:28:13;;;;;;;5.10;2.00;;;1.60;99.90;;;;;;4988587;28;20034;-80
2024/01/05 03:30:39;;;;;;;6.20;1.40;;;1.60;99.90;;;;;;4989687;28;20538;-81
2024/01/05 03:33:05;;;;;;;4.30;1.50;;;1.60;99.90;;;;;;4990654;28;20111;-80
2024/01/05 03:35:30;;;;;;;4.00;1.47;;;1.60;99.90;;;;;;4989192;28;20137;-81
2024/01/05 03:37:56;;;;;;;4.50;1.60;;;1.50;99.90;;;;;;4990500;28;20620;-80
2024/01/05 03:40:22;;;;;;;4.37;1.40;;;1.60;99.90;;;;;;4972180;28;20022;-80
2024/01/05 03:42:48;;;;;;;3.30;1.50;;;1.60;99.90;;;;;;4989987;28;20085;-80
2024/01/05 03:45:13;;;;;;;5.47;1.93;;;1.50;99.90;;;;;;4989997;28;20112;-81
2024/01/05 03:47:39;;;;;;;4.17;1.50;;;1.50;99.90;;;;;;4988313;28;20030;-80
2024/01/05 03:50:05;;;;;;;3.10;1.50;;;1.50;99.90;;;;;;4987511;28;20125;-81
2024/01/05 03:52:31;;;;;;;3.70;1.33;;;1.50;99.90;;;;;;4989678;28;20042;-80
2024/01/05 03:54:56;;;;;;;3.20;1.40;;;1.50;99.90;;;;;;4988489;28;20031;-81
2024/01/05 03:57:23;;;;;;;7.23;1.90;;;1.50;99.90;;;;;;4988844;28;20038;-80
2024/01/05 03:59:49;;;;;;;6.87;1.50;;;1.50;99.90;;;;;;4992077;28;20022;-80
2024/01/05 04:02:14;;;;;;;5.60;1.90;;;1.50;99.90;;;;;;4991704;28;20034;-81
2024/01/05 04:04:40;;;;;;;6.27;1.87;;;1.50;99.90;;;;;;4989888;28;20038;-80
2024/01/05 04:07:06;;;;;;;6.23;1.80;;;1.50;99.90;;;;;;4987695;28;20022;-81
2024/01/05 04:09:32;;;;;;;3.60;1.70;;;1.50;99.90;;;;;;4987982;28;20061;-80
2024/01/05 04:11:57;;;;;;;4.23;1.73;;;1.50;99.90;;;;;;4990488;28;20064;-81
2024/01/05 04:14:23;;;;;;;5.97;1.80;;;1.40;99.90;;;;;;4989347;28;21046;-80
2024/01/05 04:16:49;;;;;;;6.00;1.90;;;1.40;99.90;;;;;;4990366;28;20030;-80
2024/01/05 04:19:15;;;;;;;3.50;1.50;;;1.40;99.90;;;;;;4988335;28;20034;-80
2024/01/05 04:21:41;;;;;;;3.70;2.07;;;1.50;99.90;;;;;;4989834;28;20082;-80
2024/01/05 04:24:07;;;;;;;5.57;2.07;;;1.40;99.90;;;;;;4989618;28;20026;-81
2024/01/05 04:26:33;;;;;;;4.83;2.40;;;1.40;99.90;;;;;;4987750;28;20049;-81
2024/01/05 04:28:58;;;;;;;4.93;2.10;;;1.40;99.90;;;;;;4988849;28;20026;-80
2024/01/05 04:31:24;;;;;;;4.10;1.70;;;1.30;99.90;;;;;;4988121;28;20034;-80
2024/01/05 04:33:49;;;;;;;4.10;1.67;;;1.30;99.90;;;;;;4988650;28;20109;-81
2024/01/05 04:36:15;;;;;;;5.70;1.87;;;1.30;99.90;;;;;;4988175;28;20036;-80
2024/01/05 04:38:42;;;;;;;5.17;2.00;;;1.20;99.90;;;;;;4989373;28;20030;-81
2024/01/05 04:41:07;;;;;;;3.70;1.83;;;1.20;99.90;;;;;;4988829;28;20046;-80
2024/01/05 04:43:33;;;;;;;5.50;1.97;;;1.20;99.90;;;;;;4989199;28;20034;-80
2024/01/05 04:45:59;;;;;;;4.43;1.83;;;1.20;99.90;;;;;;4988629;28;20022;-80
2024/01/05 04:48:25;;;;;;;4.50;1.70;;;1.20;99.90;;;;;;4989510;28;20034;-80
2024/01/05 04:50:51;;;;;;;6.57;1.97;;;1.20;99.90;;;;;;4989835;28;20050;-80
2024/01/05 04:53:16;;;;;;;6.70;2.23;;;1.20;99.90;;;;;;4992119;28;20036;-81
2024/01/05 04:55:42;;;;;;;4.87;2.13;;;1.20;99.90;;;;;;4990407;28;20035;-80
2024/01/05 04:58:08;;;;;;;6.70;1.73;;;1.20;99.90;;;;;;4988938;28;20082;-82
2024/01/05 05:00:33;;;;;;;6.90;2.10;;;1.20;99.90;;;;;;4989560;28;20034;-80
2024/01/05 05:02:59;;;;;;;11.77;4.23;;;1.30;99.90;;;;;;4992948;28;20030;-79
2024/01/05 05:05:25;;;;;;;9.77;4.50;;;1.30;99.90;;;;;;4994476;28;20038;-80
2024/01/05 05:07:52;;;;;;;10.77;4.27;;;1.30;99.90;;;;;;4993947;28;20015;-80
2024/01/05 05:10:18;;;;;;;10.90;4.77;;;1.30;99.90;;;;;;4988009;28;20057;-80
2024/01/05 05:12:43;;;;;;;6.53;2.60;;;1.30;99.90;;;;;;4993591;28;20056;-80
2024/01/05 05:15:10;;;;;;;3.77;2.10;;;1.30;99.90;;;;;;4989121;28;20034;-80
2024/01/05 05:17:36;;;;;;;7.97;2.30;;;1.20;99.90;;;;;;4990570;28;20524;-80
2024/01/05 05:20:03;;;;;;;4.87;2.20;;;1.30;99.90;;;;;;4990166;28;20054;-81
2024/01/05 05:22:28;;;;;;;5.87;3.37;;;1.30;99.90;;;;;;4989618;28;20037;-80
2024/01/05 05:24:54;;;;;;;5.83;3.00;;;1.30;99.90;;;;;;4987929;28;20025;-81
2024/01/05 05:27:20;;;;;;;7.77;2.90;;;1.30;99.90;;;;;;4991184;28;20617;-80
2024/01/05 05:29:47;;;;;;;4.93;2.10;;;1.40;99.90;;;;;;4989813;28;20026;-80
2024/01/05 05:32:16;;;;;;;5.50;2.17;;;1.40;99.90;;;;;;4990325;28;20397;-80
2024/01/05 05:34:44;;;;;;;5.13;2.03;;;1.40;99.90;;;;;;4990604;28;20034;-81
2024/01/05 05:37:09;;;;;;;5.13;2.00;;;1.40;99.90;;;;;;4992559;28;20033;-81
2024/01/05 05:39:36;;;;;;;5.50;1.97;;;1.50;99.90;;;;;;4992951;28;20022;-80
2024/01/05 05:42:01;;;;;;;4.53;1.90;;;1.50;99.90;;;;;;4992655;28;21288;-80
2024/01/05 05:44:27;;;;;;;4.13;1.80;;;1.50;99.90;;;;;;4992470;28;20037;-81
2024/01/05 05:46:52;;;;;;;7.63;2.30;;;1.40;99.90;;;;;;4990716;28;20031;-80
2024/01/05 05:49:18;;;;;;;3.60;1.90;;;1.50;99.90;;;;;;4992720;28;20064;-80
2024/01/05 05:51:44;;;;;;;5.50;2.00;;;1.50;99.90;;;;;;4990927;28;20133;-80
2024/01/05 05:54:09;;;;;;;4.30;1.90;;;1.50;99.90;;;;;;4987153;28;20031;-82
2024/01/05 05:56:35;;;;;;;7.80;2.00;;;1.50;99.90;;;;;;4990186;28;20135;-81
2024/01/05 05:59:00;;;;;;;5.43;2.10;;;1.50;99.90;;;;;;4988463;28;20053;-82
2024/01/05 06:01:26;;;;;;;5.57;2.00;;;1.40;99.90;;;;;;4990268;28;20033;-81
2024/01/05 06:03:52;;;;;;;3.53;2.00;;;1.40;99.90;;;;;;4993928;28;21313;-81
2024/01/05 06:06:19;;;;;;;36.17;12.63;;;1.40;99.90;;;;;;4991834;28;20417;-81
2024/01/05 06:08:45;;;;;;;63.60;24.43;;;1.40;99.90;;;;;;4989644;28;20037;-82
2024/01/05 06:11:14;;;;;;;24.20;9.73;;;1.30;99.90;;;;;;4990256;28;20022;-81
2024/01/05 06:13:39;;;;;;;15.67;6.87;;;1.30;99.90;;;;;;4989559;28;20022;-81
2024/01/05 06:16:05;;;;;;;11.67;4.17;;;1.30;99.90;;;;;;4976170;28;20057;-81
2024/01/05 06:18:30;;;;;;;8.70;2.47;;;1.30;99.90;;;;;;4988911;28;20026;-81
2024/01/05 06:20:56;;;;;;;5.87;3.37;;;1.30;99.90;;;;;;4993539;28;20126;-81
2024/01/05 06:23:21;;;;;;;4.47;2.30;;;1.30;99.90;;;;;;4990312;28;20106;-81
2024/01/05 06:25:47;;;;;;;7.33;2.70;;;1.30;99.90;;;;;;4989390;28;20412;-81
2024/01/05 06:28:13;;;;;;;3.60;2.10;;;1.30;99.90;;;;;;4989848;28;21242;-80
2024/01/05 06:30:38;;;;;;;5.93;2.30;;;1.30;99.90;;;;;;4990356;28;20090;-81
2024/01/05 06:33:05;;;;;;;5.17;2.07;;;1.30;99.90;;;;;;4990873;28;20469;-80
2024/01/05 06:35:30;;;;;;;5.80;2.40;;;1.30;99.90;;;;;;4989742;28;20036;-81
2024/01/05 06:37:56;;;;;;;3.80;2.07;;;1.30;99.90;;;;;;4986509;28;20038;-81
2024/01/05 06:40:22;;;;;;;5.37;2.33;;;1.40;99.90;;;;;;4992278;28;21376;-81
2024/01/05 06:42:48;;;;;;;6.13;2.30;;;1.40;99.90;;;;;;4990075;28;20771;-81
2024/01/05 06:45:13;;;;;;;8.03;2.70;;;1.40;99.90;;;;;;4990427;28;20018;-81
2024/01/05 06:47:39;;;;;;;2.77;1.73;;;1.40;99.90;;;;;;4989561;28;20033;-81
2024/01/05 06:50:05;;;;;;;6.47;1.83;;;1.40;99.90;;;;;;4991289;28;20025;-81
2024/01/05 06:52:30;;;;;;;4.53;2.30;;;1.50;99.90;;;;;;4989039;28;20018;-81
2024/01/05 06:54:56;;;;;;;4.30;2.20;;;1.50;99.90;;;;;;4985022;28;20027;-81
2024/01/05 06:57:21;;;;;;;8.43;2.33;;;1.50;99.90;;;;;;4988519;28;20022;-81
2024/01/05 06:59:47;;;;;;;3.10;1.80;;;1.50;99.90;;;;;;4974369;28;20104;-81
2024/01/05 07:02:12;;;;;;;7.67;2.27;;;1.50;99.90;;;;;;4992076;28;20101;-81
2024/01/05 07:04:40;;;;;;;6.73;2.10;;;1.50;99.90;;;;;;4991200;28;20025;-81
2024/01/05 07:07:05;;;;;;;4.87;2.30;;;1.50;99.90;;;;;;4992157;28;20026;-82
2024/01/05 07:09:31;;;;;;;5.00;2.10;;;1.60;99.90;;;;;;4991344;28;20037;-81
2024/01/05 07:11:56;;;;;;;10.53;2.27;;;1.50;99.90;;;;;;4992121;28;20035;-81
2024/01/05 07:14:22;;;;;;;4.37;2.07;;;1.60;99.90;;;;;;4991045;28;20040;-81
2024/01/05 07:16:48;;;;;;;5.70;2.50;;;1.60;99.90;;;;;;4989462;28;20023;-81
2024/01/05 07:19:14;;;;;;;5.07;2.00;;;1.60;99.90;;;;;;4992770;28;20043;-81
2024/01/05 07:21:40;;;;;;;5.53;1.80;;;1.60;99.90;;;;;;4992618;28;20026;-82
2024/01/05 07:24:06;;;;;;;6.73;2.17;;;1.70;99.90;;;;;;4997666;28;20026;-80
2024/01/05 07:26:32;;;;;;;5.60;2.40;;;1.70;99.90;;;;;;4992955;28;20030;-80
2024/01/05 07:28:58;;;;;;;2.97;1.60;;;1.70;99.90;;;;;;4991622;28;20121;-81
2024/01/05 07:31:24;;;;;;;5.07;1.70;;;1.80;99.90;;;;;;4974790;28;20054;-81
2024/01/05 07:33:49;;;;;;;5.40;1.97;;;1.80;99.90;;;;;;4996285;28;20078;-81
2024/01/05 07:36:15;;;;;;;5.00;1.83;;;1.80;99.90;;;;;;4989443;28;20030;-81
2024/01/05 07:38:40;;;;;;;6.80;1.80;;;1.90;99.90;;;;;;4988092;28;20026;-81
2024/01/05 07:41:06;;;;;;;6.40;2.07;;;1.90;99.90;;;;;;4988190;28;20038;-82
2024/01/05 07:43:32;;;;;;;4.60;2.27;;;2.00;99.90;;;;;;4987630;28;20760;-81
2024/01/05 07:45:57;;;;;;;3.27;1.90;;;2.00;99.90;;;;;;4988333;28;20077;-81
2024/01/05 07:48:23;;;;;;;3.97;2.07;;;2.10;99.90;;;;;;4986915;28;20461;-82
2024/01/05 07:50:49;;;;;;;6.10;2.20;;;2.10;99.90;;;;;;4988598;28;20117;-81
2024/01/05 07:53:14;;;;;;;5.00;2.43;;;2.20;99.90;;;;;;4988130;28;20054;-84
2024/01/05 07:55:40;;;;;;;6.03;2.07;;;2.20;99.90;;;;;;4986050;28;20030;-82
2024/01/05 07:58:05;;;;;;;5.53;2.47;;;2.30;99.90;;;;;;4987084;28;20038;-83
2024/01/05 08:00:31;;;;;;;5.63;2.30;;;2.30;99.90;;;;;;4986300;28;20045;-84
2024/01/05 08:02:58;;;;;;;4.97;2.10;;;2.40;99.90;;;;;;4985556;28;20038;-83
2024/01/05 08:05:23;;;;;;;7.10;2.10;;;2.40;99.90;;;;;;4987516;28;20030;-83
2024/01/05 08:07:49;;;;;;;4.40;2.07;;;2.50;99.90;;;;;;4988618;28;20038;-83
2024/01/05 08:10:15;;;;;;;4.27;2.03;;;2.50;99.90;;;;;;4987816;28;20127;-83
2024/01/05 08:12:40;;;;;;;3.27;1.90;;;2.60;99.90;;;;;;4991084;28;20030;-83
2024/01/05 08:15:06;;;;;;;5.60;2.70;;;2.60;99.90;;;;;;4989232;28;20792;-83
2024/01/05 08:17:32;;;;;;;4.03;2.20;;;2.60;99.90;;;;;;4989557;28;20513;-83
2024/01/05 08:19:57;;;;;;;7.27;3.30;;;2.70;99.90;;;;;;4983010;28;20042;-83
2024/01/05 08:22:25;;;;;;;5.97;3.13;;;2.70;99.90;;;;;;4987585;28;20066;-83
2024/01/05 08:24:50;;;;;;;4.93;2.70;;;2.80;99.90;;;;;;4988646;28;20699;-83
2024/01/05 08:27:16;;;;;;;5.23;2.97;;;2.80;99.90;;;;;;4987493;28;20035;-83
2024/01/05 08:29:42;;;;;;;7.07;2.63;;;2.90;99.90;;;;;;4988567;28;20037;-84
2024/01/05 08:32:07;;;;;;;4.23;2.03;;;2.90;99.90;;;;;;4989737;28;20034;-83
2024/01/05 08:34:33;;;;;;;2.93;1.80;;;3.00;99.90;;;;;;4988849;28;20022;-83
2024/01/05 08:36:58;;;;;;;4.20;1.80;;;3.00;99.90;;;;;;4989742;28;20034;-83
2024/01/05 08:39:24;;;;;;;5.50;2.70;;;3.10;99.90;;;;;;4989380;28;20065;-84
2024/01/05 08:41:50;;;;;;;5.07;2.60;;;3.10;99.90;;;;;;4971937;28;20039;-83
2024/01/05 08:44:15;;;;;;;9.40;3.73;;;3.10;99.90;;;;;;4989518;28;20505;-84
2024/01/05 08:46:41;;;;;;;6.93;2.70;;;3.20;99.90;;;;;;4972352;28;20494;-83
2024/01/05 08:49:07;;;;;;;6.93;2.73;;;3.30;99.90;;;;;;4987739;28;20027;-83
2024/01/05 08:51:32;;;;;;;7.23;2.77;;;3.30;99.90;;;;;;4989640;28;20172;-83
2024/01/05 08:53:59;;;;;;;6.47;2.87;;;3.30;99.90;;;;;;4994052;28;20081;-83
2024/01/05 08:56:24;;;;;;;4.87;3.03;;;3.40;99.90;;;;;;4974461;28;20042;-83
2024/01/05 08:58:51;;;;;;;5.43;2.73;;;3.40;99.90;;;;;;4990744;28;20040;-83
2024/01/05 09:01:16;;;;;;;7.77;4.00;;;3.40;99.90;;;;;;4990175;28;20030;-83
2024/01/05 09:03:42;;;;;;;10.17;4.63;;;3.50;99.90;;;;;;4990734;28;20034;-83
2024/01/05 09:06:08;;;;;;;8.97;2.93;;;3.50;99.90;;;;;;4976065;28;20137;-82
2024/01/05 09:08:33;;;;;;;7.47;2.90;;;3.60;99.90;;;;;;4990051;28;20189;-83
2024/01/05 09:10:58;;;;;;;5.50;2.60;;;3.60;99.90;;;;;;4991018;28;20035;-83
2024/01/05 09:13:24;;;;;;;4.53;2.00;;;3.60;99.90;;;;;;4991353;28;20058;-84
2024/01/05 09:15:50;;;;;;;4.23;1.70;;;3.70;99.90;;;;;;4987056;28;20460;-83
2024/01/05 09:18:15;;;;;;;6.13;1.90;;;3.80;99.90;;;;;;4989503;28;20046;-83
2024/01/05 09:20:41;;;;;;;3.80;1.80;;;3.90;99.90;;;;;;4992002;28;20037;-84
2024/01/05 09:23:06;;;;;;;7.50;2.23;;;4.00;99.90;;;;;;4991308;28;20137;-85
2024/01/05 09:25:32;;;;;;;4.43;1.70;;;4.00;99.90;;;;;;4992186;28;20098;-83
2024/01/05 09:28:03;;;;;;;6.20;2.27;;;4.10;99.90;;;;;;4991517;28;20091;-83
2024/01/05 09:30:29;;;;;;;4.47;2.27;;;4.20;99.90;;;;;;4991473;28;20029;-83
2024/01/05 09:32:57;;;;;;;5.00;2.50;;;4.30;99.90;;;;;;4989561;28;20034;-84
2024/01/05 09:35:24;;;;;;;6.93;3.43;;;4.40;99.90;;;;;;4991801;28;20074;-83
2024/01/05 09:37:50;;;;;;;7.30;3.80;;;4.50;99.90;;;;;;4990479;28;20042;-84
2024/01/05 09:40:15;;;;;;;8.67;2.00;;;4.60;99.90;;;;;;4990531;28;20060;-83
2024/01/05 09:42:50;;;;;;;3.90;1.70;;;4.70;99.90;;;;;;4992478;28;20085;-83
2024/01/05 09:45:18;;;;;;;5.10;1.80;;;4.70;99.90;;;;;;4996180;28;20043;-85
2024/01/05 09:47:44;;;;;;;3.73;1.80;;;4.80;99.90;;;;;;4995764;28;20046;-84
2024/01/05 09:50:12;;;;;;;3.27;1.87;;;4.80;99.90;;;;;;4997859;28;20094;-83
2024/01/05 09:52:37;;;;;;;4.80;2.07;;;4.90;99.90;;;;;;4994384;28;20050;-83
2024/01/05 09:55:03;;;;;;;6.37;1.70;;;4.90;99.90;;;;;;4997415;28;20053;-83
2024/01/05 09:57:30;;;;;;;4.03;1.90;;;5.00;99.90;;;;;;4990703;28;20033;-83
2024/01/05 09:59:56;;;;;;;5.13;1.93;;;5.00;99.90;;;;;;4990066;28;20035;-84
2024/01/05 10:02:31;;;;;;;3.60;1.80;;;5.10;99.90;;;;;;4991688;28;20022;-84
2024/01/05 10:04:57;;;;;;;10.30;2.73;;;5.20;99.90;;;;;;4989478;28;20120;-83
2024/01/05 10:07:23;;;;;;;8.13;2.70;;;5.30;99.90;;;;;;4990135;28;20453;-83
2024/01/05 10:09:51;;;;;;;9.43;2.90;;;5.40;99.90;;;;;;4988230;28;20026;-84
2024/01/05 10:12:17;;;;;;;10.27;4.63;;;5.40;99.90;;;;;;4988488;28;20027;-84
2024/01/05 10:14:44;;;;;;;12.73;6.03;;;5.50;99.90;;;;;;4989350;28;20045;-84
2024/01/05 10:17:10;;;;;;;17.03;7.00;;;5.50;99.90;;;;;;4990788;28;20033;-84
2024/01/05 10:19:36;;;;;;;14.50;6.67;;;5.60;99.90;;;;;;4991484;28;20117;-83
2024/01/05 10:22:10;;;;;;;12.93;6.70;;;5.60;99.90;;;;;;4991961;28;20114;-83
2024/01/05 10:24:36;;;;;;;5.87;3.03;;;5.70;99.90;;;;;;4989367;28;20081;-83
2024/01/05 10:27:07;;;;;;;7.57;2.53;;;5.70;99.90;;;;;;4987705;28;20027;-83
2024/01/05 10:29:35;;;;;;;8.57;3.10;;;5.70;99.90;;;;;;4990155;28;20579;-83
2024/01/05 10:32:18;;;;;;;9.03;3.70;;;5.80;99.90;;;;;;4989477;28;20075;-83
2024/01/05 10:34:45;;;;;;;6.90;3.67;;;5.80;99.90;;;;;;4988092;28;20129;-83
2024/01/05 10:37:13;;;;;;;8.20;3.20;;;5.90;99.90;;;;;;4987397;28;20030;-83
2024/01/05 10:39:44;;;;;;;4.73;2.33;;;6.00;99.90;;;;;;4990058;28;20519;-83
2024/01/05 10:42:28;;;;;;;7.03;2.60;;;6.00;99.90;;;;;;4988185;28;20030;-84
2024/01/05 10:44:56;;;;;;;4.13;1.83;;;6.10;99.90;;;;;;4990759;28;20243;-83
2024/01/05 10:47:23;;;;;;;5.40;2.20;;;6.20;99.90;;;;;;4988785;28;20034;-83
2024/01/05 10:49:51;;;;;;;4.83;2.00;;;6.20;99.90;;;;;;4986473;28;20038;-83
2024/01/05 10:52:22;;;;;;;4.23;1.70;;;6.30;99.90;;;;;;4987644;28;20030;-83
2024/01/05 10:54:50;;;;;;;4.30;1.80;;;6.40;99.90;;;;;;4988074;28;20090;-83
2024/01/05 10:57:16;;;;;;;3.90;1.70;;;6.40;99.90;;;;;;4987405;28;20034;-83
2024/01/05 10:59:49;;;;;;;6.33;1.93;;;6.50;99.90;;;;;;4986789;28;20487;-84
2024/01/05 11:02:42;;;;;;;5.93;1.90;;;6.60;99.90;;;;;;4987307;28;20065;-83
2024/01/05 11:05:10;;;;;;;4.30;2.00;;;6.60;99.90;;;;;;4989989;28;20042;-84
2024/01/05 11:07:36;;;;;;;4.57;2.33;;;6.70;99.90;;;;;;4987176;28;20041;-83
2024/01/05 11:10:38;;;;;;;2.80;1.70;;;6.70;99.90;;;;;;4988713;28;21469;-85
2024/01/05 11:13:25;;;;;;;5.23;2.00;;;6.80;99.90;;;;;;4988443;28;21382;-85
2024/01/05 11:16:28;;;;;;;3.00;1.80;;;6.80;99.90;;;;;;4990090;28;20109;-84
2024/01/05 11:19:29;;;;;;;3.47;1.77;;;6.80;99.90;;;;;;4989224;28;20104;-84
2024/01/05 11:22:02;;;;;;;4.23;1.80;;;6.90;99.90;;;;;;4967695;28;20042;-83
2024/01/05 11:24:28;;;;;;;4.50;1.73;;;6.90;99.90;;;;;;4990048;28;20041;-83
2024/01/05 11:26:55;;;;;;;4.13;1.70;;;7.00;99.90;;;;;;4988103;28;20026;-83
2024/01/05 11:29:45;;;;;;;3.83;2.00;;;7.00;99.90;;;;;;4988667;28;20036;-83
2024/01/05 11:32:45;;;;;;;2.90;1.90;;;7.10;99.90;;;;;;4988731;28;20121;-83
2024/01/05 11:35:41;;;;;;;4.93;1.70;;;7.10;99.90;;;;;;4987660;28;20023;-85
2024/01/05 11:38:22;;;;;;;;;;;7.20;99.90;;;;;;4985863;28;20450;-85
2024/01/05 11:40:48;;;;;;;2.43;1.60;;;7.20;99.90;;;;;;4988529;28;19917;-84
2024/01/05 11:43:36;;;;;;;3.27;1.60;;;7.20;99.90;;;;;;4991985;28;20030;-83
2024/01/05 11:46:02;;;;;;;4.30;2.10;;;7.30;99.90;;;;;;4971747;28;20032;-84
2024/01/05 11:48:33;;;;;;;4.67;1.83;;;7.30;99.90;;;;;;4992312;28;20030;-83
2024/01/05 11:50:59;;;;;;;4.73;2.07;;;7.30;99.90;;;;;;4989871;28;20125;-83
2024/01/05 11:53:27;;;;;;;4.27;2.37;;;7.40;99.90;;;;;;4992109;28;20716;-83
2024/01/05 11:56:03;;;;;;;4.97;2.47;;;7.30;99.90;;;;;;4989395;28;21837;-88
2024/01/05 11:58:35;;;;;;;6.93;2.30;;;7.30;99.90;;;;;;4987527;28;20034;-87
2024/01/05 12:01:04;;;;;;;6.13;2.60;;;7.30;99.90;;;;;;4972223;28;20118;-84
2024/01/05 12:03:30;;;;;;;6.27;2.67;;;7.30;99.90;;;;;;4983325;28;20096;-83
2024/01/05 12:05:57;;;;;;;5.87;2.73;;;7.30;99.90;;;;;;4993588;28;20026;-84
2024/01/05 12:08:23;;;;;;;6.20;2.60;;;7.40;99.90;;;;;;4988564;28;20101;-83
2024/01/05 12:10:54;;;;;;;6.53;3.00;;;7.50;99.90;;;;;;4991160;28;20053;-85
2024/01/05 12:13:27;;;;;;;5.73;2.70;;;7.60;99.90;;;;;;4985583;28;20124;-83
2024/01/05 12:15:53;;;;;;;5.90;3.10;;;7.70;99.90;;;;;;4991938;28;20037;-88
2024/01/05 12:18:25;;;;;;;6.30;2.90;;;7.80;99.90;;;;;;4986058;28;20031;-84
2024/01/05 12:20:55;;;;;;;6.23;2.77;;;7.90;99.90;;;;;;4986424;28;20180;-84
2024/01/05 12:23:21;;;;;;;5.67;2.67;;;8.00;99.90;;;;;;4984317;28;20949;-84
2024/01/05 12:26:19;;;;;;;7.33;3.47;;;8.00;99.90;;;;;;4983248;28;20041;-85
2024/01/05 12:28:46;;;;;;;8.43;3.60;;;8.10;99.90;;;;;;4952843;28;20061;-86
2024/01/05 12:31:12;;;;;;;6.10;3.07;;;8.10;99.90;;;;;;4988053;28;20048;-83
2024/01/05 12:33:38;;;;;;;7.00;3.03;;;8.10;99.90;;;;;;4985194;28;20026;-86
2024/01/05 12:36:09;;;;;;;6.07;3.07;;;8.10;99.90;;;;;;4981653;28;20052;-84
2024/01/05 12:38:35;;;;;;;6.60;3.33;;;8.00;99.90;;;;;;4984859;28;20045;-83
2024/01/05 12:41:08;;;;;;;5.40;3.00;;;8.00;99.90;;;;;;4983892;28;20034;-83
2024/01/05 12:43:36;;;;;;;7.53;3.27;;;8.00;99.90;;;;;;4985902;28;20026;-83
2024/01/05 12:46:03;;;;;;;7.60;3.10;;;7.90;99.90;;;;;;4985590;28;20026;-85
2024/01/05 12:48:29;;;;;;;7.90;3.10;;;7.90;99.90;;;;;;4983809;28;20072;-85
2024/01/05 12:51:10;;;;;;;6.10;2.97;;;7.80;99.90;;;;;;4985349;28;21562;-83
2024/01/05 12:53:36;;;;;;;7.10;3.07;;;7.80;99.90;;;;;;4986146;28;20023;-84
2024/01/05 12:56:13;;;;;;;6.43;3.17;;;7.70;99.90;;;;;;4986376;28;20033;-84
2024/01/05 12:58:43;;;;;;;5.83;3.13;;;7.70;99.90;;;;;;4987591;28;20097;-85